sensor_id;sensor_type;location;lat;lon;timestamp;P1;durP1;ratioP1;P2;durP2;ratioP2
10242;SDS011;5166;48.292;16.418;2022-09-04T00:00:16;15.90;;;15.00;;
10242;SDS011;5166;48.292;16.418;2022-09-04T00:02:21;18.73;;;17.63;;
10242;SDS011;5166;48.292;16.418;2022-09-04T00:04:28;18.70;;;17.50;;
10242;SDS011;5166;48.292;16.418;2022-09-04T00:06:32;18.07;;;17.07;;
10242;SDS011;5166;48.292;16.418;2022-09-04T00:08:39;16.40;;;15.40;;
10242;SDS011;5166;48.292;16.418;2022-09-04T00:10:45;19.10;;;17.90;;
10242;SDS011;5166;48.292;16.418;2022-09-04T00:12:49;15.17;;;14.33;;
10242;SDS011;5166;48.292;16.418;2022-09-04T00:14:52;19.42;;;18.23;;
10242;SDS011;5166;48.292;16.418;2022-09-04T00:16:55;17.70;;;16.60;;
10242;SDS011;5166;48.292;16.418;2022-09-04T00:18:59;18.40;;;17.30;;
10242;SDS011;5166;48.292;16.418;2022-09-04T00:21:03;17.90;;;16.80;;
10242;SDS011;5166;48.292;16.418;2022-09-04T00:23:08;19.13;;;17.83;;
10242;SDS011;5166;48.292;16.418;2022-09-04T00:25:13;18.90;;;17.80;;
10242;SDS011;5166;48.292;16.418;2022-09-04T00:27:16;17.83;;;16.88;;
10242;SDS011;5166;48.292;16.418;2022-09-04T00:29:19;17.10;;;16.10;;
10242;SDS011;5166;48.292;16.418;2022-09-04T00:31:24;18.47;;;17.37;;
10242;SDS011;5166;48.292;16.418;2022-09-04T00:33:27;18.13;;;17.13;;
10242;SDS011;5166;48.292;16.418;2022-09-04T00:35:30;18.57;;;17.47;;
10242;SDS011;5166;48.292;16.418;2022-09-04T00:37:34;17.33;;;16.33;;
10242;SDS011;5166;48.292;16.418;2022-09-04T00:39:37;18.80;;;17.70;;
10242;SDS011;5166;48.292;16.418;2022-09-04T00:41:42;16.50;;;15.50;;
10242;SDS011;5166;48.292;16.418;2022-09-04T00:43:51;18.17;;;17.15;;
10242;SDS011;5166;48.292;16.418;2022-09-04T00:46:04;16.80;;;15.90;;
10242;SDS011;5166;48.292;16.418;2022-09-04T00:48:14;17.97;;;16.97;;
10242;SDS011;5166;48.292;16.418;2022-09-04T00:50:25;17.53;;;16.33;;
10242;SDS011;5166;48.292;16.418;2022-09-04T00:52:54;19.40;;;18.17;;
10242;SDS011;5166;48.292;16.418;2022-09-04T00:55:03;17.57;;;16.57;;
10242;SDS011;5166;48.292;16.418;2022-09-04T00:57:15;18.77;;;17.70;;
10242;SDS011;5166;48.292;16.418;2022-09-04T00:59:24;18.30;;;17.30;;
10242;SDS011;5166;48.292;16.418;2022-09-04T01:01:27;19.20;;;18.02;;
10242;SDS011;5166;48.292;16.418;2022-09-04T01:05:46;18.20;;;17.20;;
10242;SDS011;5166;48.292;16.418;2022-09-04T01:07:53;18.40;;;17.25;;
10242;SDS011;5166;48.292;16.418;2022-09-04T01:10:00;19.30;;;18.20;;
10242;SDS011;5166;48.292;16.418;2022-09-04T01:12:09;16.13;;;15.23;;
10242;SDS011;5166;48.292;16.418;2022-09-04T01:14:14;18.97;;;17.90;;
10242;SDS011;5166;48.292;16.418;2022-09-04T01:16:19;18.03;;;17.07;;
10242;SDS011;5166;48.292;16.418;2022-09-04T01:18:23;19.33;;;18.23;;
10242;SDS011;5166;48.292;16.418;2022-09-04T01:20:29;19.20;;;18.10;;
10242;SDS011;5166;48.292;16.418;2022-09-04T01:22:36;18.03;;;17.00;;
10242;SDS011;5166;48.292;16.418;2022-09-04T01:24:49;17.33;;;16.33;;
10242;SDS011;5166;48.292;16.418;2022-09-04T01:26:58;18.77;;;17.77;;
10242;SDS011;5166;48.292;16.418;2022-09-04T01:29:02;15.37;;;14.47;;
10242;SDS011;5166;48.292;16.418;2022-09-04T01:31:08;18.70;;;17.50;;
10242;SDS011;5166;48.292;16.418;2022-09-04T01:33:11;18.10;;;17.10;;
10242;SDS011;5166;48.292;16.418;2022-09-04T01:35:18;19.30;;;18.10;;
10242;SDS011;5166;48.292;16.418;2022-09-04T01:37:27;16.23;;;15.25;;
10242;SDS011;5166;48.292;16.418;2022-09-04T01:39:31;17.77;;;16.85;;
10242;SDS011;5166;48.292;16.418;2022-09-04T01:41:34;17.50;;;16.43;;
10242;SDS011;5166;48.292;16.418;2022-09-04T01:43:37;17.93;;;16.93;;
10242;SDS011;5166;48.292;16.418;2022-09-04T01:45:45;18.20;;;17.20;;
10242;SDS011;5166;48.292;16.418;2022-09-04T01:47:48;18.90;;;17.80;;
10242;SDS011;5166;48.292;16.418;2022-09-04T01:49:52;18.10;;;17.10;;
10242;SDS011;5166;48.292;16.418;2022-09-04T01:51:55;15.53;;;14.73;;
10242;SDS011;5166;48.292;16.418;2022-09-04T01:54:04;19.17;;;18.12;;
10242;SDS011;5166;48.292;16.418;2022-09-04T01:56:11;16.53;;;15.43;;
10242;SDS011;5166;48.292;16.418;2022-09-04T01:58:17;19.33;;;18.12;;
10242;SDS011;5166;48.292;16.418;2022-09-04T02:00:20;18.77;;;17.67;;
10242;SDS011;5166;48.292;16.418;2022-09-04T02:02:25;18.40;;;17.20;;
10242;SDS011;5166;48.292;16.418;2022-09-04T02:04:27;18.30;;;17.30;;
10242;SDS011;5166;48.292;16.418;2022-09-04T02:06:31;17.20;;;16.30;;
10242;SDS011;5166;48.292;16.418;2022-09-04T02:08:37;19.37;;;18.20;;
10242;SDS011;5166;48.292;16.418;2022-09-04T02:10:44;17.03;;;16.03;;
10242;SDS011;5166;48.292;16.418;2022-09-04T02:12:46;20.23;;;19.13;;
10242;SDS011;5166;48.292;16.418;2022-09-04T02:14:50;16.90;;;15.93;;
10242;SDS011;5166;48.292;16.418;2022-09-04T02:16:56;19.50;;;18.40;;
10242;SDS011;5166;48.292;16.418;2022-09-04T02:19:01;18.97;;;17.87;;
10242;SDS011;5166;48.292;16.418;2022-09-04T02:21:06;20.60;;;19.40;;
10242;SDS011;5166;48.292;16.418;2022-09-04T02:23:10;18.10;;;17.20;;
10242;SDS011;5166;48.292;16.418;2022-09-04T02:25:15;19.73;;;18.63;;
10242;SDS011;5166;48.292;16.418;2022-09-04T02:27:21;17.50;;;16.50;;
10242;SDS011;5166;48.292;16.418;2022-09-04T02:29:24;20.37;;;19.17;;
10242;SDS011;5166;48.292;16.418;2022-09-04T02:31:29;17.67;;;16.67;;
10242;SDS011;5166;48.292;16.418;2022-09-04T02:33:33;19.13;;;18.13;;
10242;SDS011;5166;48.292;16.418;2022-09-04T02:35:36;19.97;;;18.67;;
10242;SDS011;5166;48.292;16.418;2022-09-04T02:37:39;20.00;;;18.90;;
10242;SDS011;5166;48.292;16.418;2022-09-04T02:39:44;20.35;;;19.10;;
10242;SDS011;5166;48.292;16.418;2022-09-04T02:41:48;19.60;;;18.57;;
10242;SDS011;5166;48.292;16.418;2022-09-04T02:43:57;19.15;;;18.10;;
10242;SDS011;5166;48.292;16.418;2022-09-04T02:46:00;19.98;;;18.88;;
10242;SDS011;5166;48.292;16.418;2022-09-04T02:48:05;18.33;;;17.33;;
10242;SDS011;5166;48.292;16.418;2022-09-04T02:50:09;20.10;;;18.83;;
10242;SDS011;5166;48.292;16.418;2022-09-04T02:52:14;17.83;;;16.73;;
10242;SDS011;5166;48.292;16.418;2022-09-04T02:54:20;19.63;;;18.53;;
10242;SDS011;5166;48.292;16.418;2022-09-04T02:56:25;19.40;;;18.30;;
10242;SDS011;5166;48.292;16.418;2022-09-04T02:58:31;19.08;;;18.05;;
10242;SDS011;5166;48.292;16.418;2022-09-04T03:00:37;19.43;;;18.33;;
10242;SDS011;5166;48.292;16.418;2022-09-04T03:02:42;20.35;;;19.25;;
10242;SDS011;5166;48.292;16.418;2022-09-04T03:04:48;20.27;;;19.17;;
10242;SDS011;5166;48.292;16.418;2022-09-04T03:06:50;20.00;;;18.90;;
10242;SDS011;5166;48.292;16.418;2022-09-04T03:08:54;18.20;;;17.10;;
10242;SDS011;5166;48.292;16.418;2022-09-04T03:10:57;18.80;;;17.70;;
10242;SDS011;5166;48.292;16.418;2022-09-04T03:13:00;15.97;;;15.07;;
10242;SDS011;5166;48.292;16.418;2022-09-04T03:15:06;18.13;;;17.10;;
10242;SDS011;5166;48.292;16.418;2022-09-04T03:17:10;18.73;;;17.73;;
10242;SDS011;5166;48.292;16.418;2022-09-04T03:19:13;19.80;;;18.50;;
10242;SDS011;5166;48.292;16.418;2022-09-04T03:21:17;20.33;;;19.23;;
10242;SDS011;5166;48.292;16.418;2022-09-04T03:23:19;19.37;;;18.27;;
10242;SDS011;5166;48.292;16.418;2022-09-04T03:25:30;21.08;;;19.90;;
10242;SDS011;5166;48.292;16.418;2022-09-04T03:27:48;20.67;;;19.53;;
10242;SDS011;5166;48.292;16.418;2022-09-04T03:29:52;17.50;;;16.60;;
10242;SDS011;5166;48.292;16.418;2022-09-04T03:31:57;19.90;;;18.70;;
10242;SDS011;5166;48.292;16.418;2022-09-04T03:36:28;20.00;;;18.90;;
10242;SDS011;5166;48.292;16.418;2022-09-04T03:38:33;25.83;;;23.83;;
10242;SDS011;5166;48.292;16.418;2022-09-04T03:40:34;19.80;;;18.67;;
10242;SDS011;5166;48.292;16.418;2022-09-04T03:42:39;17.47;;;16.47;;
10242;SDS011;5166;48.292;16.418;2022-09-04T03:44:45;18.43;;;17.43;;
10242;SDS011;5166;48.292;16.418;2022-09-04T03:46:53;18.00;;;16.90;;
10242;SDS011;5166;48.292;16.418;2022-09-04T03:49:01;18.27;;;17.27;;
10242;SDS011;5166;48.292;16.418;2022-09-04T03:51:08;14.87;;;14.00;;
10242;SDS011;5166;48.292;16.418;2022-09-04T03:53:13;18.50;;;17.50;;
10242;SDS011;5166;48.292;16.418;2022-09-04T03:55:21;14.93;;;14.03;;
10242;SDS011;5166;48.292;16.418;2022-09-04T03:57:32;18.50;;;17.50;;
10242;SDS011;5166;48.292;16.418;2022-09-04T03:59:43;18.43;;;17.43;;
10242;SDS011;5166;48.292;16.418;2022-09-04T04:01:49;19.87;;;18.70;;
10242;SDS011;5166;48.292;16.418;2022-09-04T04:03:55;18.07;;;17.07;;
10242;SDS011;5166;48.292;16.418;2022-09-04T04:06:01;17.87;;;16.87;;
10242;SDS011;5166;48.292;16.418;2022-09-04T04:08:19;17.90;;;16.90;;
10242;SDS011;5166;48.292;16.418;2022-09-04T04:10:28;18.00;;;17.00;;
10242;SDS011;5166;48.292;16.418;2022-09-04T04:12:38;15.90;;;15.00;;
10242;SDS011;5166;48.292;16.418;2022-09-04T04:14:47;17.43;;;16.37;;
10242;SDS011;5166;48.292;16.418;2022-09-04T04:16:52;16.53;;;15.63;;
10242;SDS011;5166;48.292;16.418;2022-09-04T04:18:59;19.95;;;18.75;;
10242;SDS011;5166;48.292;16.418;2022-09-04T04:21:07;19.10;;;18.00;;
10242;SDS011;5166;48.292;16.418;2022-09-04T04:25:46;18.53;;;17.47;;
10242;SDS011;5166;48.292;16.418;2022-09-04T04:27:55;17.97;;;16.97;;
10242;SDS011;5166;48.292;16.418;2022-09-04T04:30:04;20.70;;;19.50;;
10242;SDS011;5166;48.292;16.418;2022-09-04T04:32:13;19.43;;;18.23;;
10242;SDS011;5166;48.292;16.418;2022-09-04T04:34:18;20.33;;;19.12;;
10242;SDS011;5166;48.292;16.418;2022-09-04T04:36:23;20.00;;;18.57;;
10242;SDS011;5166;48.292;16.418;2022-09-04T04:38:31;22.53;;;20.43;;
10242;SDS011;5166;48.292;16.418;2022-09-04T04:40:42;28.50;;;26.20;;
10242;SDS011;5166;48.292;16.418;2022-09-04T04:42:48;25.93;;;24.07;;
10242;SDS011;5166;48.292;16.418;2022-09-04T04:44:54;26.73;;;25.03;;
10242;SDS011;5166;48.292;16.418;2022-09-04T04:47:06;22.93;;;21.23;;
10242;SDS011;5166;48.292;16.418;2022-09-04T04:49:14;26.23;;;24.23;;
10242;SDS011;5166;48.292;16.418;2022-09-04T04:51:27;25.03;;;23.33;;
10242;SDS011;5166;48.292;16.418;2022-09-04T04:53:35;29.17;;;27.07;;
10242;SDS011;5166;48.292;16.418;2022-09-04T04:55:38;30.53;;;28.27;;
10242;SDS011;5166;48.292;16.418;2022-09-04T04:57:45;28.27;;;26.57;;
10242;SDS011;5166;48.292;16.418;2022-09-04T04:59:49;32.83;;;30.60;;
10242;SDS011;5166;48.292;16.418;2022-09-04T05:01:54;34.73;;;32.33;;
10242;SDS011;5166;48.292;16.418;2022-09-04T05:04:00;32.83;;;30.70;;
10242;SDS011;5166;48.292;16.418;2022-09-04T05:06:04;33.60;;;31.30;;
10242;SDS011;5166;48.292;16.418;2022-09-04T05:08:09;32.97;;;30.93;;
10242;SDS011;5166;48.292;16.418;2022-09-04T05:10:13;35.53;;;32.97;;
10242;SDS011;5166;48.292;16.418;2022-09-04T05:12:19;37.73;;;35.13;;
10242;SDS011;5166;48.292;16.418;2022-09-04T05:14:24;34.60;;;32.30;;
10242;SDS011;5166;48.292;16.418;2022-09-04T05:16:32;38.47;;;35.50;;
10242;SDS011;5166;48.292;16.418;2022-09-04T05:18:35;41.30;;;38.27;;
10242;SDS011;5166;48.292;16.418;2022-09-04T05:20:40;40.50;;;37.60;;
10242;SDS011;5166;48.292;16.418;2022-09-04T05:22:45;39.83;;;36.97;;
10242;SDS011;5166;48.292;16.418;2022-09-04T05:24:49;42.67;;;39.70;;
10242;SDS011;5166;48.292;16.418;2022-09-04T05:26:53;44.62;;;41.60;;
10242;SDS011;5166;48.292;16.418;2022-09-04T05:28:56;43.03;;;40.03;;
10242;SDS011;5166;48.292;16.418;2022-09-04T05:31:04;37.87;;;35.47;;
10242;SDS011;5166;48.292;16.418;2022-09-04T05:33:10;36.40;;;33.90;;
10242;SDS011;5166;48.292;16.418;2022-09-04T05:35:15;48.13;;;44.50;;
10242;SDS011;5166;48.292;16.418;2022-09-04T05:37:18;42.17;;;39.27;;
10242;SDS011;5166;48.292;16.418;2022-09-04T05:39:22;40.57;;;37.77;;
10242;SDS011;5166;48.292;16.418;2022-09-04T05:41:31;42.63;;;39.43;;
10242;SDS011;5166;48.292;16.418;2022-09-04T05:43:41;45.35;;;42.35;;
10242;SDS011;5166;48.292;16.418;2022-09-04T05:45:51;43.57;;;40.67;;
10242;SDS011;5166;48.292;16.418;2022-09-04T05:48:00;40.67;;;37.97;;
10242;SDS011;5166;48.292;16.418;2022-09-04T05:50:06;41.03;;;38.23;;
10242;SDS011;5166;48.292;16.418;2022-09-04T05:52:17;34.60;;;32.30;;
10242;SDS011;5166;48.292;16.418;2022-09-04T05:54:37;38.67;;;36.07;;
10242;SDS011;5166;48.292;16.418;2022-09-04T05:56:46;34.63;;;32.27;;
10242;SDS011;5166;48.292;16.418;2022-09-04T05:59:02;37.57;;;35.07;;
10242;SDS011;5166;48.292;16.418;2022-09-04T06:01:29;36.20;;;33.70;;
10242;SDS011;5166;48.292;16.418;2022-09-04T06:03:43;32.37;;;30.27;;
10242;SDS011;5166;48.292;16.418;2022-09-04T06:05:59;39.35;;;36.70;;
10242;SDS011;5166;48.292;16.418;2022-09-04T06:08:10;34.67;;;32.53;;
10242;SDS011;5166;48.292;16.418;2022-09-04T06:10:15;35.63;;;33.23;;
10242;SDS011;5166;48.292;16.418;2022-09-04T06:12:20;35.57;;;33.17;;
10242;SDS011;5166;48.292;16.418;2022-09-04T06:14:30;36.40;;;34.00;;
10242;SDS011;5166;48.292;16.418;2022-09-04T06:16:39;33.80;;;31.50;;
10242;SDS011;5166;48.292;16.418;2022-09-04T06:18:50;32.63;;;30.43;;
10242;SDS011;5166;48.292;16.418;2022-09-04T06:20:59;35.30;;;32.90;;
10242;SDS011;5166;48.292;16.418;2022-09-04T06:23:10;35.13;;;32.80;;
10242;SDS011;5166;48.292;16.418;2022-09-04T06:25:27;33.80;;;31.40;;
10242;SDS011;5166;48.292;16.418;2022-09-04T06:27:38;30.83;;;29.03;;
10242;SDS011;5166;48.292;16.418;2022-09-04T06:29:59;32.53;;;30.33;;
10242;SDS011;5166;48.292;16.418;2022-09-04T06:32:09;35.33;;;32.83;;
10242;SDS011;5166;48.292;16.418;2022-09-04T06:34:14;29.30;;;27.40;;
10242;SDS011;5166;48.292;16.418;2022-09-04T06:36:22;29.50;;;27.60;;
10242;SDS011;5166;48.292;16.418;2022-09-04T06:38:40;30.27;;;28.40;;
10242;SDS011;5166;48.292;16.418;2022-09-04T06:40:47;24.97;;;23.37;;
10242;SDS011;5166;48.292;16.418;2022-09-04T06:42:54;29.13;;;27.07;;
10242;SDS011;5166;48.292;16.418;2022-09-04T06:45:02;27.43;;;25.53;;
10242;SDS011;5166;48.292;16.418;2022-09-04T06:47:08;26.43;;;24.83;;
10242;SDS011;5166;48.292;16.418;2022-09-04T06:49:14;27.13;;;25.43;;
10242;SDS011;5166;48.292;16.418;2022-09-04T06:51:20;26.90;;;25.30;;
10242;SDS011;5166;48.292;16.418;2022-09-04T06:53:26;26.93;;;25.13;;
10242;SDS011;5166;48.292;16.418;2022-09-04T06:55:32;25.60;;;23.87;;
10242;SDS011;5166;48.292;16.418;2022-09-04T06:57:42;27.13;;;25.37;;
10242;SDS011;5166;48.292;16.418;2022-09-04T06:59:50;22.73;;;21.33;;
10242;SDS011;5166;48.292;16.418;2022-09-04T07:01:58;22.43;;;21.00;;
10242;SDS011;5166;48.292;16.418;2022-09-04T07:04:03;20.93;;;19.60;;
10242;SDS011;5166;48.292;16.418;2022-09-04T07:06:09;22.17;;;20.60;;
10242;SDS011;5166;48.292;16.418;2022-09-04T07:08:13;20.63;;;19.33;;
10242;SDS011;5166;48.292;16.418;2022-09-04T07:10:16;22.70;;;21.00;;
10242;SDS011;5166;48.292;16.418;2022-09-04T07:12:23;21.90;;;20.40;;
10242;SDS011;5166;48.292;16.418;2022-09-04T07:14:35;24.03;;;22.43;;
10242;SDS011;5166;48.292;16.418;2022-09-04T07:16:41;21.93;;;20.63;;
10242;SDS011;5166;48.292;16.418;2022-09-04T07:18:52;22.00;;;20.60;;
10242;SDS011;5166;48.292;16.418;2022-09-04T07:21:00;22.17;;;20.67;;
10242;SDS011;5166;48.292;16.418;2022-09-04T07:23:10;23.30;;;21.90;;
10242;SDS011;5166;48.292;16.418;2022-09-04T07:25:19;24.13;;;22.53;;
10242;SDS011;5166;48.292;16.418;2022-09-04T07:27:26;22.77;;;21.47;;
10242;SDS011;5166;48.292;16.418;2022-09-04T07:29:30;23.93;;;22.13;;
10242;SDS011;5166;48.292;16.418;2022-09-04T07:31:33;20.53;;;19.30;;
10242;SDS011;5166;48.292;16.418;2022-09-04T07:33:37;19.50;;;18.40;;
10242;SDS011;5166;48.292;16.418;2022-09-04T07:35:41;17.27;;;16.30;;
10242;SDS011;5166;48.292;16.418;2022-09-04T07:37:47;17.27;;;16.17;;
10242;SDS011;5166;48.292;16.418;2022-09-04T07:39:49;18.42;;;17.30;;
10242;SDS011;5166;48.292;16.418;2022-09-04T07:41:52;16.07;;;15.17;;
10242;SDS011;5166;48.292;16.418;2022-09-04T07:43:56;14.75;;;13.95;;
10242;SDS011;5166;48.292;16.418;2022-09-04T07:45:59;14.48;;;13.57;;
10242;SDS011;5166;48.292;16.418;2022-09-04T07:48:07;19.70;;;18.50;;
10242;SDS011;5166;48.292;16.418;2022-09-04T07:50:14;18.90;;;17.70;;
10242;SDS011;5166;48.292;16.418;2022-09-04T07:52:17;18.33;;;17.17;;
10242;SDS011;5166;48.292;16.418;2022-09-04T07:54:31;17.27;;;16.17;;
10242;SDS011;5166;48.292;16.418;2022-09-04T07:56:43;15.57;;;14.68;;
10242;SDS011;5166;48.292;16.418;2022-09-04T07:58:55;15.07;;;14.10;;
10242;SDS011;5166;48.292;16.418;2022-09-04T08:01:07;15.60;;;14.70;;
10242;SDS011;5166;48.292;16.418;2022-09-04T08:03:20;14.27;;;13.40;;
10242;SDS011;5166;48.292;16.418;2022-09-04T08:05:27;14.68;;;13.88;;
10242;SDS011;5166;48.292;16.418;2022-09-04T08:07:42;15.57;;;14.57;;
10242;SDS011;5166;48.292;16.418;2022-09-04T08:09:51;14.35;;;13.55;;
10242;SDS011;5166;48.292;16.418;2022-09-04T08:12:01;15.40;;;14.27;;
10242;SDS011;5166;48.292;16.418;2022-09-04T08:14:15;15.30;;;14.50;;
10242;SDS011;5166;48.292;16.418;2022-09-04T08:16:21;14.20;;;13.40;;
10242;SDS011;5166;48.292;16.418;2022-09-04T08:18:29;13.02;;;12.32;;
10242;SDS011;5166;48.292;16.418;2022-09-04T08:20:39;15.02;;;14.23;;
10242;SDS011;5166;48.292;16.418;2022-09-04T08:22:44;12.75;;;12.05;;
10242;SDS011;5166;48.292;16.418;2022-09-04T08:24:51;14.88;;;14.07;;
10242;SDS011;5166;48.292;16.418;2022-09-04T08:27:03;12.43;;;11.82;;
10242;SDS011;5166;48.292;16.418;2022-09-04T08:29:10;15.40;;;14.48;;
10242;SDS011;5166;48.292;16.418;2022-09-04T08:31:17;13.15;;;12.35;;
10242;SDS011;5166;48.292;16.418;2022-09-04T08:33:24;16.15;;;15.15;;
10242;SDS011;5166;48.292;16.418;2022-09-04T08:35:30;15.38;;;14.48;;
10242;SDS011;5166;48.292;16.418;2022-09-04T08:37:35;15.93;;;15.02;;
10242;SDS011;5166;48.292;16.418;2022-09-04T08:42:24;14.62;;;13.82;;
10242;SDS011;5166;48.292;16.418;2022-09-04T08:47:32;15.93;;;15.02;;
10242;SDS011;5166;48.292;16.418;2022-09-04T08:52:22;14.15;;;13.25;;
10242;SDS011;5166;48.292;16.418;2022-09-04T08:57:11;14.40;;;13.55;;
10242;SDS011;5166;48.292;16.418;2022-09-04T08:59:31;14.32;;;13.52;;
10242;SDS011;5166;48.292;16.418;2022-09-04T09:04:26;14.70;;;13.82;;
10242;SDS011;5166;48.292;16.418;2022-09-04T09:07:06;13.32;;;12.48;;
10242;SDS011;5166;48.292;16.418;2022-09-04T09:15:18;15.88;;;14.93;;
10242;SDS011;5166;48.292;16.418;2022-09-04T09:17:46;15.05;;;14.15;;
10242;SDS011;5166;48.292;16.418;2022-09-04T09:20:16;16.12;;;15.18;;
10242;SDS011;5166;48.292;16.418;2022-09-04T09:22:43;15.93;;;15.02;;
10242;SDS011;5166;48.292;16.418;2022-09-04T09:30:27;16.23;;;15.32;;
10242;SDS011;5166;48.292;16.418;2022-09-04T09:33:04;15.35;;;14.45;;
10242;SDS011;5166;48.292;16.418;2022-09-04T09:38:10;16.10;;;15.10;;
10242;SDS011;5166;48.292;16.418;2022-09-04T09:40:28;15.80;;;14.90;;
10242;SDS011;5166;48.292;16.418;2022-09-04T09:42:45;14.70;;;13.80;;
10242;SDS011;5166;48.292;16.418;2022-09-04T09:45:14;15.95;;;15.05;;
10242;SDS011;5166;48.292;16.418;2022-09-04T09:49:43;13.45;;;12.68;;
10242;SDS011;5166;48.292;16.418;2022-09-04T10:02:17;14.93;;;14.12;;
10242;SDS011;5166;48.292;16.418;2022-09-04T10:04:28;13.57;;;12.82;;
10242;SDS011;5166;48.292;16.418;2022-09-04T10:06:52;14.77;;;13.85;;
10242;SDS011;5166;48.292;16.418;2022-09-04T10:11:45;14.82;;;13.93;;
10242;SDS011;5166;48.292;16.418;2022-09-04T10:14:16;16.40;;;15.50;;
10242;SDS011;5166;48.292;16.418;2022-09-04T10:16:29;16.30;;;15.40;;
10242;SDS011;5166;48.292;16.418;2022-09-04T10:18:47;14.75;;;13.75;;
10242;SDS011;5166;48.292;16.418;2022-09-04T10:23:15;13.60;;;12.70;;
10242;SDS011;5166;48.292;16.418;2022-09-04T10:25:29;15.05;;;14.15;;
10242;SDS011;5166;48.292;16.418;2022-09-04T10:28:00;14.90;;;14.10;;
10242;SDS011;5166;48.292;16.418;2022-09-04T10:30:06;15.10;;;14.20;;
10242;SDS011;5166;48.292;16.418;2022-09-04T10:32:18;13.62;;;12.82;;
10242;SDS011;5166;48.292;16.418;2022-09-04T10:34:33;14.95;;;14.02;;
10242;SDS011;5166;48.292;16.418;2022-09-04T10:36:43;14.07;;;13.23;;
10242;SDS011;5166;48.292;16.418;2022-09-04T10:38:46;12.90;;;12.10;;
10242;SDS011;5166;48.292;16.418;2022-09-04T10:41:32;16.25;;;15.35;;
10242;SDS011;5166;48.292;16.418;2022-09-04T10:43:46;15.27;;;14.38;;
10242;SDS011;5166;48.292;16.418;2022-09-04T10:45:59;15.27;;;14.48;;
10242;SDS011;5166;48.292;16.418;2022-09-04T10:48:08;18.95;;;17.85;;
10242;SDS011;5166;48.292;16.418;2022-09-04T10:50:23;13.38;;;12.48;;
10242;SDS011;5166;48.292;16.418;2022-09-04T10:52:33;12.52;;;11.82;;
10242;SDS011;5166;48.292;16.418;2022-09-04T10:54:50;15.15;;;14.25;;
10242;SDS011;5166;48.292;16.418;2022-09-04T10:56:59;14.18;;;13.38;;
10242;SDS011;5166;48.292;16.418;2022-09-04T10:59:08;13.52;;;12.73;;
10242;SDS011;5166;48.292;16.418;2022-09-04T11:01:23;13.05;;;12.32;;
10242;SDS011;5166;48.292;16.418;2022-09-04T11:03:32;12.88;;;12.07;;
10242;SDS011;5166;48.292;16.418;2022-09-04T11:05:49;14.55;;;13.75;;
10242;SDS011;5166;48.292;16.418;2022-09-04T11:08:07;14.52;;;13.65;;
10242;SDS011;5166;48.292;16.418;2022-09-04T11:10:17;15.40;;;14.40;;
10242;SDS011;5166;48.292;16.418;2022-09-04T11:12:26;14.70;;;13.90;;
10242;SDS011;5166;48.292;16.418;2022-09-04T11:14:42;14.75;;;13.85;;
10242;SDS011;5166;48.292;16.418;2022-09-04T11:19:40;15.50;;;14.60;;
10242;SDS011;5166;48.292;16.418;2022-09-04T11:21:56;13.10;;;12.27;;
10242;SDS011;5166;48.292;16.418;2022-09-04T11:24:14;14.98;;;14.07;;
10242;SDS011;5166;48.292;16.418;2022-09-04T11:29:08;15.38;;;14.38;;
10242;SDS011;5166;48.292;16.418;2022-09-04T11:31:19;16.15;;;15.20;;
10242;SDS011;5166;48.292;16.418;2022-09-04T11:33:35;12.52;;;11.82;;
10242;SDS011;5166;48.292;16.418;2022-09-04T11:35:48;15.20;;;14.30;;
10242;SDS011;5166;48.292;16.418;2022-09-04T11:38:15;14.57;;;13.68;;
10242;SDS011;5166;48.292;16.418;2022-09-04T11:40:23;13.35;;;12.62;;
10242;SDS011;5166;48.292;16.418;2022-09-04T11:42:33;14.00;;;13.20;;
10242;SDS011;5166;48.292;16.418;2022-09-04T11:44:43;15.43;;;14.43;;
10242;SDS011;5166;48.292;16.418;2022-09-04T11:46:54;13.57;;;12.82;;
10242;SDS011;5166;48.292;16.418;2022-09-04T11:49:06;15.35;;;14.40;;
10242;SDS011;5166;48.292;16.418;2022-09-04T11:51:22;15.35;;;14.23;;
10242;SDS011;5166;48.292;16.418;2022-09-04T11:53:37;13.60;;;12.90;;
10242;SDS011;5166;48.292;16.418;2022-09-04T11:55:50;13.60;;;12.88;;
10242;SDS011;5166;48.292;16.418;2022-09-04T11:58:05;15.50;;;14.60;;
10242;SDS011;5166;48.292;16.418;2022-09-04T12:00:11;13.35;;;12.55;;
10242;SDS011;5166;48.292;16.418;2022-09-04T12:02:20;13.73;;;12.93;;
10242;SDS011;5166;48.292;16.418;2022-09-04T12:04:31;12.40;;;11.52;;
10242;SDS011;5166;48.292;16.418;2022-09-04T12:06:37;15.02;;;14.12;;
10242;SDS011;5166;48.292;16.418;2022-09-04T12:08:52;12.00;;;11.35;;
10242;SDS011;5166;48.292;16.418;2022-09-04T12:11:03;11.12;;;10.50;;
10242;SDS011;5166;48.292;16.418;2022-09-04T12:13:13;13.18;;;12.48;;
10242;SDS011;5166;48.292;16.418;2022-09-04T12:15:25;13.80;;;13.10;;
10242;SDS011;5166;48.292;16.418;2022-09-04T12:22:37;12.93;;;12.23;;
10242;SDS011;5166;48.292;16.418;2022-09-04T12:24:49;12.45;;;11.75;;
10242;SDS011;5166;48.292;16.418;2022-09-04T12:27:05;11.05;;;10.45;;
10242;SDS011;5166;48.292;16.418;2022-09-04T12:29:17;11.40;;;10.70;;
10242;SDS011;5166;48.292;16.418;2022-09-04T12:31:44;12.75;;;12.15;;
10242;SDS011;5166;48.292;16.418;2022-09-04T12:33:54;12.48;;;11.77;;
10242;SDS011;5166;48.292;16.418;2022-09-04T12:36:12;12.07;;;11.38;;
10242;SDS011;5166;48.292;16.418;2022-09-04T12:38:22;15.12;;;14.23;;
10242;SDS011;5166;48.292;16.418;2022-09-04T12:40:31;12.45;;;11.75;;
10242;SDS011;5166;48.292;16.418;2022-09-04T12:42:35;13.82;;;13.02;;
10242;SDS011;5166;48.292;16.418;2022-09-04T12:44:40;13.82;;;13.12;;
10242;SDS011;5166;48.292;16.418;2022-09-04T12:46:47;12.95;;;12.15;;
10242;SDS011;5166;48.292;16.418;2022-09-04T12:48:57;14.00;;;13.30;;
10242;SDS011;5166;48.292;16.418;2022-09-04T12:51:04;14.25;;;13.45;;
10242;SDS011;5166;48.292;16.418;2022-09-04T12:53:13;15.27;;;14.48;;
10242;SDS011;5166;48.292;16.418;2022-09-04T12:55:20;15.55;;;14.68;;
10242;SDS011;5166;48.292;16.418;2022-09-04T12:57:26;13.93;;;13.23;;
10242;SDS011;5166;48.292;16.418;2022-09-04T12:59:32;12.20;;;11.50;;
10242;SDS011;5166;48.292;16.418;2022-09-04T13:01:38;12.70;;;12.00;;
10242;SDS011;5166;48.292;16.418;2022-09-04T13:03:43;13.52;;;12.82;;
10242;SDS011;5166;48.292;16.418;2022-09-04T13:05:51;12.57;;;11.88;;
10242;SDS011;5166;48.292;16.418;2022-09-04T13:07:54;11.93;;;11.32;;
10242;SDS011;5166;48.292;16.418;2022-09-04T13:10:00;13.73;;;12.93;;
10242;SDS011;5166;48.292;16.418;2022-09-04T13:12:07;12.85;;;12.07;;
10242;SDS011;5166;48.292;16.418;2022-09-04T13:14:18;13.50;;;12.80;;
10242;SDS011;5166;48.292;16.418;2022-09-04T13:16:25;13.10;;;12.45;;
10242;SDS011;5166;48.292;16.418;2022-09-04T13:18:31;12.00;;;11.40;;
10242;SDS011;5166;48.292;16.418;2022-09-04T13:20:37;13.95;;;13.02;;
10242;SDS011;5166;48.292;16.418;2022-09-04T13:22:46;14.80;;;14.00;;
10242;SDS011;5166;48.292;16.418;2022-09-04T13:24:49;13.90;;;13.20;;
10242;SDS011;5166;48.292;16.418;2022-09-04T13:26:55;11.90;;;11.30;;
10242;SDS011;5166;48.292;16.418;2022-09-04T13:29:04;12.40;;;11.80;;
10242;SDS011;5166;48.292;16.418;2022-09-04T13:31:21;12.52;;;11.82;;
10242;SDS011;5166;48.292;16.418;2022-09-04T13:33:28;12.60;;;11.88;;
10242;SDS011;5166;48.292;16.418;2022-09-04T13:35:40;12.15;;;11.45;;